Gdansk Lech Walesa Airport Gdansk PL
ICAO: EPGD
IATA: GDN
Category: Large
Scheduled Services: Yes

Elevation: 489 ft
TransAlt. 6500 ft.

Airport Communications:
GDANSK APP:127.275
ATIS:129.625
GDANSK TWR:118.1

EPGD Zoom In..

Runways:

(A) RW 11 length 9186 ft width 148 ft
---- / hdg 108

(B) RW 29 length 9186 ft width 148 ft
ILS 110.30 / hdg 288

Location; EPGD
Day. 11 / Time. 19.30 Zulu
* QNH: 1021
* Temperature: 13° c. 55.4°f.
* Wind from: 240° Speed 04 kn.
Dewpoint: 07° c.
Visibility: 10 km or more,
No clouds below 1,500 m.
No cumulonimbus, and no significant weather
fenomena in the aerodrome or its vicinity.

EPGD 111930Z 24004KT CAVOK 13/07 Q1021

Going to: --> -->


Wind From 240°
Speed 04 kn.

 
 
jpsmedia worldairports.se 2020   terms of use